Weather at Hudgins Farm Ultralightport [CLOSED]

Public forecast

Using degrees Fahrenheit for public forecast. Weather courtesy of forecast.io.

Closest aviation weather report (METAR) to Hudgins Farm Ultralightport

Closest report is Middle Peninsula Regional Airport, 16.8 nm (31.1 km) W. Retrieved 2020/09/29 16:35 UTC (0 seconds ago):

KFYJ 291635Z AUTO 16004KT 10SM BKN009 OVC014 23/22 A2985 RMK AO1 T02340219

Closest aviation forecast (TAF) to Hudgins Farm Ultralightport

Closest forecast is Newport News Williamsburg International Airport, 22.2 nm (41.2 km) S. Retrieved 2020/09/29 12:54 UTC (3 hours ago):

TAF KPHF 291151Z 2912/3012 19006KT P6SM SCT025 BKN060 FM291300 17009KT 6SM -SHRA BKN025 FM292100 17012G19KT 6SM -SHRA OVC025 FM300100 20011KT 3SM +SHRA OVC009 FM300500 31012KT 4SM SHRA OVC007 FM300900 30007KT 6SM -SHRA OVC010